createdAt,value
2022-10-05T00:01:01.543Z,7.77
2022-10-05T00:03:48.870Z,7.87
2022-10-05T00:06:35.874Z,9.13
2022-10-05T00:09:23.323Z,11.27
2022-10-05T00:12:17.120Z,11.00
2022-10-05T00:15:12.004Z,7.23
2022-10-05T00:17:58.934Z,10.83
2022-10-05T00:20:48.071Z,8.83
2022-10-05T00:23:35.023Z,8.20
2022-10-05T00:26:24.591Z,7.67
2022-10-05T00:29:23.088Z,8.93
2022-10-05T00:32:10.674Z,8.13
2022-10-05T00:34:57.747Z,8.27
2022-10-05T00:37:46.784Z,8.73
2022-10-05T00:41:04.982Z,7.20
2022-10-05T00:44:24.508Z,6.63
2022-10-05T00:47:18.234Z,8.30
2022-10-05T00:50:20.315Z,7.70
2022-10-05T00:53:19.980Z,8.67
2022-10-05T00:56:45.497Z,10.47
2022-10-05T01:00:00.261Z,8.70
2022-10-05T01:03:01.410Z,9.67
2022-10-05T01:06:09.591Z,7.63
2022-10-05T01:09:01.831Z,8.67
2022-10-05T01:12:16.899Z,8.30
2022-10-05T01:15:34.825Z,9.93
2022-10-05T01:18:28.344Z,10.40
2022-10-05T01:21:22.886Z,7.50
2022-10-05T01:24:47.632Z,10.57
2022-10-05T01:28:00.977Z,13.57
2022-10-05T01:31:06.500Z,10.03
2022-10-05T01:34:43.264Z,10.37
2022-10-05T01:37:39.116Z,8.27
2022-10-05T01:40:33.818Z,9.00
2022-10-05T01:43:45.078Z,9.40
2022-10-05T01:46:35.879Z,7.90
2022-10-05T01:49:31.898Z,9.67
2022-10-05T01:52:43.654Z,9.80
2022-10-05T01:56:02.214Z,8.27
2022-10-05T01:59:16.008Z,10.87
2022-10-05T02:02:19.500Z,11.97
2022-10-05T02:05:13.933Z,13.33
2022-10-05T02:08:08.110Z,12.07
2022-10-05T02:11:17.460Z,14.73
2022-10-05T02:14:12.744Z,11.57
2022-10-05T02:17:05.528Z,9.40
2022-10-05T02:20:11.192Z,9.47
2022-10-05T02:23:07.903Z,7.67
2022-10-05T02:25:56.000Z,8.93
2022-10-05T02:28:52.841Z,8.87
2022-10-05T02:31:47.577Z,9.80
2022-10-05T02:34:40.526Z,9.53
2022-10-05T02:37:46.262Z,11.10
2022-10-05T02:40:47.559Z,9.50
2022-10-05T02:44:01.816Z,9.40
2022-10-05T02:47:09.966Z,11.23
2022-10-05T02:50:18.921Z,10.40
2022-10-05T02:53:17.117Z,7.20
2022-10-05T02:56:10.980Z,10.83
2022-10-05T02:59:28.464Z,10.10
2022-10-05T03:02:20.464Z,15.10
2022-10-05T03:05:28.095Z,11.20
2022-10-05T03:08:35.297Z,9.73
2022-10-05T03:11:33.667Z,8.20
2022-10-05T03:14:30.223Z,11.50
2022-10-05T03:17:24.004Z,6.83
2022-10-05T03:20:33.295Z,11.30
2022-10-05T03:23:50.991Z,13.23
2022-10-05T03:26:37.910Z,10.03
2022-10-05T03:29:43.735Z,10.23
2022-10-05T03:32:53.941Z,13.60
2022-10-05T03:35:53.214Z,9.00
2022-10-05T03:39:03.302Z,12.53
2022-10-05T03:42:10.299Z,10.30
2022-10-05T03:45:20.924Z,7.97
2022-10-05T03:48:12.233Z,10.43
2022-10-05T03:51:11.626Z,7.13
2022-10-05T03:54:11.227Z,7.80
2022-10-05T03:57:10.714Z,7.50
2022-10-05T04:00:05.155Z,8.23
2022-10-05T04:03:17.160Z,9.17
2022-10-05T04:06:16.463Z,8.13
2022-10-05T04:09:15.007Z,7.17
2022-10-05T04:12:36.605Z,11.23
2022-10-05T04:15:49.931Z,8.10
2022-10-05T04:19:10.527Z,7.33
2022-10-05T04:22:07.644Z,10.37
2022-10-05T04:25:13.600Z,8.93
2022-10-05T04:28:32.318Z,11.27
2022-10-05T04:31:52.495Z,8.27
2022-10-05T04:35:06.889Z,9.63
2022-10-05T04:38:26.157Z,10.27
2022-10-05T04:41:46.424Z,9.10
2022-10-05T04:44:59.226Z,8.87
2022-10-05T04:47:58.500Z,8.90
2022-10-05T04:51:25.250Z,11.70
2022-10-05T04:54:45.746Z,11.60
2022-10-05T04:57:46.041Z,10.33
2022-10-05T05:00:57.969Z,8.70
2022-10-05T05:04:19.278Z,9.67
2022-10-05T05:07:20.000Z,8.40
2022-10-05T05:10:15.920Z,8.00
2022-10-05T05:13:21.169Z,10.47
2022-10-05T05:16:36.137Z,10.10
2022-10-05T05:19:23.160Z,8.00
2022-10-05T05:22:34.470Z,8.70
2022-10-05T05:25:55.592Z,8.43
2022-10-05T05:29:00.685Z,9.60
2022-10-05T05:32:11.758Z,10.97
2022-10-05T05:35:35.769Z,11.47
2022-10-05T05:38:59.252Z,9.83
2022-10-05T05:42:18.410Z,15.07
2022-10-05T05:45:32.803Z,8.80
2022-10-05T05:48:31.217Z,7.70
2022-10-05T05:51:37.616Z,9.70
2022-10-05T05:54:35.305Z,8.83
2022-10-05T05:57:37.480Z,8.83
2022-10-05T06:00:30.012Z,11.37
2022-10-05T06:03:35.525Z,7.63
2022-10-05T06:06:27.273Z,11.70
2022-10-05T06:09:21.255Z,8.53
2022-10-05T06:12:28.841Z,10.00
2022-10-05T06:15:27.829Z,9.63
2022-10-05T06:18:19.254Z,9.37
2022-10-05T06:21:20.529Z,11.53
2022-10-05T06:24:20.131Z,13.60
2022-10-05T06:27:24.464Z,8.37
2022-10-05T06:30:14.954Z,11.47
2022-10-05T06:33:06.578Z,10.40
2022-10-05T06:35:56.265Z,10.33
2022-10-05T06:39:22.063Z,10.03
2022-10-05T06:42:34.153Z,9.57
2022-10-05T06:45:38.434Z,10.03
2022-10-05T06:48:34.233Z,9.40
2022-10-05T06:51:34.702Z,10.30
2022-10-05T06:54:59.467Z,16.77
2022-10-05T06:58:00.134Z,13.23
2022-10-05T07:00:54.204Z,13.00
2022-10-05T07:03:59.569Z,11.87
2022-10-05T07:07:03.090Z,9.23
2022-10-05T07:10:23.435Z,9.30
2022-10-05T07:13:32.325Z,9.17
2022-10-05T07:16:37.703Z,8.67
2022-10-05T07:19:33.281Z,12.57
2022-10-05T07:22:44.140Z,17.27
2022-10-05T07:25:55.981Z,17.20
2022-10-05T07:28:57.889Z,18.03
2022-10-05T07:32:38.521Z,13.27
2022-10-05T07:36:04.038Z,13.00
2022-10-05T07:39:08.951Z,18.43
2022-10-05T07:42:31.096Z,12.03
2022-10-05T07:45:49.904Z,12.53
2022-10-05T07:49:18.491Z,10.70
2022-10-05T07:52:13.508Z,13.80
2022-10-05T07:55:19.863Z,12.80
2022-10-05T07:58:22.018Z,23.67
2022-10-05T08:01:16.913Z,11.60
2022-10-05T08:04:19.880Z,14.77
2022-10-05T08:07:11.224Z,11.33
2022-10-05T08:10:22.753Z,10.83
2022-10-05T08:13:34.627Z,13.23
2022-10-05T08:16:25.634Z,12.93
2022-10-05T08:19:50.772Z,14.40
2022-10-05T08:22:46.987Z,11.97
2022-10-05T08:25:54.936Z,11.27
2022-10-05T08:28:52.324Z,8.07
2022-10-05T08:31:42.854Z,11.40
2022-10-05T08:34:53.720Z,9.77
2022-10-05T08:37:43.079Z,8.17
2022-10-05T08:40:51.797Z,8.97
2022-10-05T08:44:02.319Z,11.47
2022-10-05T08:47:27.950Z,13.33
2022-10-05T08:50:25.726Z,7.93
2022-10-05T08:53:40.031Z,10.43
2022-10-05T08:56:43.568Z,17.50
2022-10-05T08:59:49.430Z,8.47
2022-10-05T09:02:57.764Z,7.43
2022-10-05T09:05:56.788Z,15.73
2022-10-05T09:08:47.196Z,17.47
2022-10-05T09:11:41.099Z,13.83
2022-10-05T09:14:41.966Z,9.00
2022-10-05T09:17:44.796Z,8.73
2022-10-05T09:20:55.165Z,9.30
2022-10-05T09:23:56.098Z,16.87
2022-10-05T09:26:48.734Z,9.80
2022-10-05T09:29:57.616Z,9.90
2022-10-05T09:33:13.799Z,14.00
2022-10-05T09:36:03.898Z,10.80
2022-10-05T09:39:24.431Z,11.20
2022-10-05T09:42:35.058Z,7.73
2022-10-05T09:45:28.706Z,9.63
2022-10-05T09:48:34.711Z,10.20
2022-10-05T09:51:50.259Z,7.50
2022-10-05T09:55:06.800Z,9.87
2022-10-05T09:58:35.482Z,8.93
2022-10-05T10:01:56.705Z,9.57
2022-10-05T10:05:07.370Z,6.57
2022-10-05T10:08:04.894Z,9.20
2022-10-05T10:11:16.504Z,7.50
2022-10-05T10:14:18.506Z,6.03
2022-10-05T10:17:21.316Z,7.18
2022-10-05T10:20:48.974Z,10.57
2022-10-05T10:23:42.043Z,9.15
2022-10-05T10:27:01.432Z,7.85
2022-10-05T10:29:54.231Z,10.93
2022-10-05T10:33:00.241Z,7.57
2022-10-05T10:36:15.420Z,10.23
2022-10-05T10:39:14.937Z,8.47
2022-10-05T10:42:16.013Z,7.60
2022-10-05T10:45:31.694Z,7.00
2022-10-05T10:48:18.955Z,8.20
2022-10-05T10:51:42.264Z,7.77
2022-10-05T10:54:29.616Z,8.40
2022-10-05T10:57:30.381Z,8.57
2022-10-05T11:00:45.488Z,7.07
2022-10-05T11:03:53.718Z,6.70
2022-10-05T11:06:43.495Z,6.27
2022-10-05T11:09:50.637Z,5.73
2022-10-05T11:13:05.098Z,5.03
2022-10-05T11:16:22.613Z,5.67
2022-10-05T11:19:40.777Z,6.03
2022-10-05T11:23:26.617Z,5.30
2022-10-05T11:26:25.547Z,4.97
2022-10-05T11:29:17.196Z,4.90
2022-10-05T11:32:16.017Z,6.20
2022-10-05T11:35:38.429Z,6.23
2022-10-05T11:38:28.146Z,6.70
2022-10-05T11:41:41.944Z,5.90
2022-10-05T11:45:19.139Z,6.57
2022-10-05T11:48:39.751Z,7.17
2022-10-05T11:51:35.529Z,9.90
2022-10-05T11:55:05.727Z,8.93
2022-10-05T11:57:53.705Z,6.17
2022-10-05T12:00:47.617Z,10.93
2022-10-05T12:04:09.690Z,6.90
2022-10-05T12:07:04.915Z,8.23
2022-10-05T12:10:10.473Z,7.57
2022-10-05T12:13:25.909Z,6.40
2022-10-05T12:16:16.320Z,6.77
2022-10-05T12:19:08.375Z,8.30
2022-10-05T12:22:04.223Z,5.70
2022-10-05T12:25:06.657Z,8.27
2022-10-05T12:28:01.790Z,6.97
2022-10-05T12:31:00.561Z,6.37
2022-10-05T12:34:20.247Z,7.10
2022-10-05T12:37:37.503Z,4.77
2022-10-05T12:40:46.502Z,6.97
2022-10-05T12:43:46.191Z,4.67
2022-10-05T12:47:10.053Z,4.97
2022-10-05T12:50:39.129Z,5.70
2022-10-05T12:53:43.230Z,6.30
2022-10-05T12:56:30.225Z,8.70
2022-10-05T12:59:52.981Z,5.70
2022-10-05T13:03:04.049Z,3.80
2022-10-05T13:06:26.244Z,5.38
2022-10-05T13:09:24.859Z,5.43
2022-10-05T13:12:27.703Z,7.28
2022-10-05T13:15:48.079Z,7.17
2022-10-05T13:18:56.020Z,6.35
2022-10-05T13:22:04.790Z,8.17
2022-10-05T13:25:17.858Z,6.67
2022-10-05T13:28:16.590Z,4.83
2022-10-05T13:31:07.768Z,5.27
2022-10-05T13:34:06.576Z,4.27
2022-10-05T13:37:33.132Z,5.80
2022-10-05T13:40:42.530Z,5.10
2022-10-05T13:43:58.031Z,5.77
2022-10-05T13:47:09.513Z,4.40
2022-10-05T13:50:18.370Z,6.10
2022-10-05T13:53:18.464Z,5.13
2022-10-05T13:56:22.188Z,4.40
2022-10-05T13:59:39.559Z,4.63
2022-10-05T14:02:32.434Z,4.10
2022-10-05T14:05:31.306Z,4.73
2022-10-05T14:08:19.995Z,6.03
2022-10-05T14:11:35.418Z,3.77
2022-10-05T14:14:31.106Z,4.97
2022-10-05T14:17:40.041Z,3.83
2022-10-05T14:20:34.995Z,4.67
2022-10-05T14:23:27.689Z,6.07
2022-10-05T14:26:27.797Z,5.13
2022-10-05T14:29:15.507Z,4.15
2022-10-05T14:32:14.483Z,4.30
2022-10-05T14:35:13.331Z,5.32
2022-10-05T14:38:09.101Z,4.47
2022-10-05T14:41:21.361Z,3.87
2022-10-05T14:44:16.070Z,5.83
2022-10-05T14:47:22.901Z,5.60
2022-10-05T14:50:22.214Z,3.83
2022-10-05T14:53:18.806Z,4.97
2022-10-05T14:56:18.641Z,5.17
2022-10-05T14:59:35.820Z,6.43
2022-10-05T15:02:56.294Z,5.87
2022-10-05T15:05:52.056Z,4.37
2022-10-05T15:08:41.783Z,4.55
2022-10-05T15:11:47.040Z,4.77
2022-10-05T15:14:44.202Z,4.30
2022-10-05T15:17:45.823Z,4.43
2022-10-05T15:21:05.111Z,5.63
2022-10-05T15:23:59.993Z,5.70
2022-10-05T15:26:53.801Z,5.23
2022-10-05T15:29:57.587Z,4.07
2022-10-05T15:32:47.773Z,4.93
2022-10-05T15:35:42.764Z,5.07
2022-10-05T15:38:39.775Z,6.10
2022-10-05T15:42:05.360Z,8.17
2022-10-05T15:45:13.858Z,5.57
2022-10-05T15:48:29.796Z,6.33
2022-10-05T15:51:30.317Z,3.13
2022-10-05T15:54:44.779Z,5.07
2022-10-05T15:57:56.669Z,6.83
2022-10-05T16:00:50.926Z,3.43
2022-10-05T16:04:12.102Z,6.83
2022-10-05T16:07:20.083Z,3.33
2022-10-05T16:10:13.665Z,3.20
2022-10-05T16:13:19.417Z,4.10
2022-10-05T16:16:16.426Z,3.47
2022-10-05T16:19:07.993Z,5.37
2022-10-05T16:22:22.474Z,4.87
2022-10-05T16:25:44.391Z,6.77
2022-10-05T16:28:52.846Z,5.17
2022-10-05T16:32:00.096Z,18.10
2022-10-05T16:35:07.516Z,24.93
2022-10-05T16:38:24.910Z,19.50
2022-10-05T16:41:23.230Z,8.00
2022-10-05T16:44:44.346Z,7.77
2022-10-05T16:47:34.202Z,4.40
2022-10-05T16:50:43.032Z,4.57
2022-10-05T16:53:49.918Z,4.53
2022-10-05T16:56:48.095Z,3.83
2022-10-05T16:59:46.684Z,4.00
2022-10-05T17:02:53.049Z,4.37
2022-10-05T17:06:07.044Z,4.60
2022-10-05T17:09:11.721Z,9.40
2022-10-05T17:12:16.996Z,3.60
2022-10-05T17:15:19.489Z,4.33
2022-10-05T17:18:49.244Z,4.03
2022-10-05T17:21:56.026Z,5.80
2022-10-05T17:24:57.409Z,6.97
2022-10-05T17:27:54.587Z,4.47
2022-10-05T17:30:58.732Z,3.53
2022-10-05T17:34:25.875Z,4.70
2022-10-05T17:38:21.751Z,5.97
2022-10-05T17:41:18.989Z,3.73
2022-10-05T17:44:21.016Z,4.33
2022-10-05T17:47:11.289Z,4.37
2022-10-05T17:50:17.741Z,5.50
2022-10-05T17:53:40.719Z,4.10
2022-10-05T17:56:28.691Z,4.70
2022-10-05T17:59:35.067Z,4.77
2022-10-05T18:02:40.223Z,7.70
2022-10-05T18:05:29.223Z,6.20
2022-10-05T18:08:17.555Z,6.20
2022-10-05T18:11:16.991Z,4.13
2022-10-05T18:14:24.632Z,7.13
2022-10-05T18:17:12.885Z,5.57
2022-10-05T18:20:24.162Z,4.80
2022-10-05T18:23:11.078Z,6.30
2022-10-05T18:26:02.073Z,3.97
2022-10-05T18:29:14.016Z,5.60
2022-10-05T18:32:07.917Z,5.67
2022-10-05T18:35:08.017Z,6.73
2022-10-05T18:38:18.081Z,4.13
2022-10-05T18:41:42.944Z,3.80
2022-10-05T18:44:44.145Z,4.03
2022-10-05T18:48:05.360Z,3.37
2022-10-05T18:51:00.594Z,4.63
2022-10-05T18:54:05.737Z,5.33
2022-10-05T18:56:53.106Z,4.03
2022-10-05T18:59:53.766Z,2.90
2022-10-05T19:02:46.213Z,4.10
2022-10-05T19:05:53.689Z,5.50
2022-10-05T19:08:52.209Z,7.97
2022-10-05T19:11:56.368Z,5.90
2022-10-05T19:15:06.883Z,4.47
2022-10-05T19:18:13.170Z,3.77
2022-10-05T19:21:24.496Z,5.10
2022-10-05T19:24:31.094Z,4.30
2022-10-05T19:27:41.183Z,4.63
2022-10-05T19:30:43.782Z,4.30
2022-10-05T19:33:31.058Z,5.27
2022-10-05T19:36:20.888Z,7.30
2022-10-05T19:39:14.539Z,6.17
2022-10-05T19:42:40.129Z,7.20
2022-10-05T19:45:30.182Z,6.17
2022-10-05T19:48:46.354Z,7.90
2022-10-05T19:51:35.549Z,8.17
2022-10-05T19:54:29.741Z,11.20
2022-10-05T19:57:17.894Z,7.60
2022-10-05T20:00:05.291Z,8.13
2022-10-05T20:03:12.518Z,6.33
2022-10-05T20:06:07.494Z,6.33
2022-10-05T20:09:00.048Z,5.33
2022-10-05T20:11:54.125Z,5.40
2022-10-05T20:15:01.101Z,4.67
2022-10-05T20:18:06.564Z,4.57
2022-10-05T20:20:53.665Z,3.90
2022-10-05T20:23:40.584Z,3.17
2022-10-05T20:27:00.464Z,3.40
2022-10-05T20:29:47.508Z,4.53
2022-10-05T20:32:34.573Z,5.23
2022-10-05T20:35:26.213Z,3.70
2022-10-05T20:38:13.259Z,5.87
2022-10-05T20:41:00.180Z,5.60
2022-10-05T20:43:47.208Z,4.60
2022-10-05T20:46:34.450Z,3.67
2022-10-05T20:49:23.606Z,13.30
2022-10-05T20:52:12.220Z,5.53
2022-10-05T20:54:59.263Z,4.57
2022-10-05T20:57:47.236Z,3.97
2022-10-05T21:00:52.825Z,3.00
2022-10-05T21:03:41.884Z,3.57
2022-10-05T21:06:29.488Z,5.97
2022-10-05T21:09:19.683Z,3.10
2022-10-05T21:12:06.679Z,4.07
2022-10-05T21:14:53.846Z,4.00
2022-10-05T21:17:40.787Z,6.33
2022-10-05T21:20:27.776Z,3.20
2022-10-05T21:23:14.674Z,3.87
2022-10-05T21:26:02.251Z,3.63
2022-10-05T21:28:49.412Z,3.83
2022-10-05T21:31:37.688Z,3.60
2022-10-05T21:34:24.740Z,3.10
2022-10-05T21:37:11.926Z,6.37
2022-10-05T21:39:58.834Z,3.50
2022-10-05T21:42:45.758Z,3.73
2022-10-05T21:45:32.763Z,12.80
2022-10-05T21:48:19.835Z,4.50
2022-10-05T21:51:13.315Z,3.43
2022-10-05T21:54:10.663Z,4.77
2022-10-05T21:56:58.445Z,4.10
2022-10-05T21:59:45.716Z,4.57
2022-10-05T22:02:32.617Z,5.07
2022-10-05T22:05:19.719Z,3.10
2022-10-05T22:08:07.160Z,5.33
2022-10-05T22:10:54.682Z,4.10
2022-10-05T22:13:52.483Z,4.20
2022-10-05T22:16:40.075Z,4.60
2022-10-05T22:19:27.161Z,2.93
2022-10-05T22:22:14.102Z,6.53
2022-10-05T22:25:01.079Z,3.40
2022-10-05T22:27:49.712Z,3.43
2022-10-05T22:30:38.000Z,5.30
2022-10-05T22:33:24.973Z,5.80
2022-10-05T22:36:11.939Z,5.73
2022-10-05T22:38:58.909Z,6.90
2022-10-05T22:41:46.363Z,3.83
2022-10-05T22:44:33.959Z,5.47
2022-10-05T22:47:20.915Z,3.07
2022-10-05T22:50:09.235Z,2.57
2022-10-05T22:52:56.147Z,3.63
2022-10-05T22:55:43.102Z,6.67
2022-10-05T22:58:30.439Z,4.67
2022-10-05T23:01:19.038Z,3.13
2022-10-05T23:04:08.689Z,4.13
2022-10-05T23:06:56.054Z,4.07
2022-10-05T23:09:43.390Z,5.73
2022-10-05T23:12:30.711Z,6.07
2022-10-05T23:15:17.669Z,4.93
2022-10-05T23:18:04.646Z,4.53
2022-10-05T23:20:55.530Z,3.33
2022-10-05T23:23:47.236Z,3.97
2022-10-05T23:26:34.267Z,3.43
2022-10-05T23:29:21.177Z,3.70
2022-10-05T23:32:08.173Z,2.93
2022-10-05T23:34:55.087Z,2.57
2022-10-05T23:37:45.400Z,2.90
2022-10-05T23:40:32.300Z,2.63
2022-10-05T23:43:19.268Z,3.40
2022-10-05T23:46:07.362Z,1.93
2022-10-05T23:48:54.372Z,2.50
2022-10-05T23:51:42.236Z,2.93
2022-10-05T23:54:29.189Z,3.70
2022-10-05T23:57:19.797Z,2.47
